ADJ weather

Amman-Marka International Airport
Amman, Amman Governorate, Jordan

Public forecast

Using degrees Celsius for public forecast. Weather courtesy of forecast.io.

Current aviation weather report (METAR) for Amman-Marka International Airport

Retrieved 2020/06/01 22:00 UTC (35 minutes ago):

OJAM 012200Z 24006KT CAVOK 22/08 Q1012 NOSIG

Aviation forecast (TAF) for Amman-Marka International Airport

Retrieved 2020/06/01 18:39 UTC (4 hours ago):

TAF OJAM 011734Z 0118/0224 28006KT CAVOK PROB40 TEMPO 0200/0206 VRB01KT 3000 TEMPO 0210/0218 23016KT 3000 BLDU